createdAt,value
2017-07-08T00:00:01.369Z,17
2017-07-08T00:05:02.139Z,17.1
2017-07-08T00:10:01.975Z,17.1
2017-07-08T00:15:01.877Z,17.1
2017-07-08T00:20:01.602Z,17.2
2017-07-08T00:25:01.682Z,17.2
2017-07-08T00:30:01.461Z,17.1
2017-07-08T00:35:01.671Z,17.1
2017-07-08T00:40:01.432Z,17.1
2017-07-08T00:45:01.250Z,17.1
2017-07-08T00:50:01.958Z,17
2017-07-08T00:55:01.792Z,17
2017-07-08T01:00:01.183Z,17
2017-07-08T01:05:01.254Z,17
2017-07-08T01:10:01.994Z,17
2017-07-08T01:15:01.771Z,17
2017-07-08T01:20:01.543Z,17
2017-07-08T01:25:01.455Z,17
2017-07-08T01:30:01.256Z,17
2017-07-08T01:35:01.743Z,16.9
2017-07-08T01:40:01.574Z,16.9
2017-07-08T01:45:01.532Z,16.9
2017-07-08T01:50:01.240Z,16.9
2017-07-08T01:55:01.861Z,16.9
2017-07-08T02:00:01.645Z,16.9
2017-07-08T02:05:01.325Z,16.9
2017-07-08T02:10:02.083Z,16.9
2017-07-08T02:15:02.024Z,16.8
2017-07-08T02:20:01.922Z,16.9
2017-07-08T02:25:01.240Z,16.8
2017-07-08T02:30:01.856Z,16.8
2017-07-08T02:35:02.078Z,16.8
2017-07-08T02:40:01.421Z,16.8
2017-07-08T02:45:01.960Z,16.8
2017-07-08T02:50:01.745Z,16.8
2017-07-08T02:55:01.923Z,16.8
2017-07-08T03:00:01.962Z,16.8
2017-07-08T03:05:01.705Z,16.8
2017-07-08T03:10:01.489Z,16.8
2017-07-08T03:15:01.979Z,16.8
2017-07-08T03:20:01.573Z,16.8
2017-07-08T03:25:02.032Z,16.8
2017-07-08T03:30:02.078Z,16.7
2017-07-08T03:35:01.348Z,16.7
2017-07-08T03:40:02.194Z,16.7
2017-07-08T03:45:01.982Z,16.7
2017-07-08T03:50:04.685Z,16.7
2017-07-08T03:55:01.944Z,16.7
2017-07-08T04:00:02.127Z,16.7
2017-07-08T04:05:02.966Z,16.8
2017-07-08T04:10:01.628Z,16.8
2017-07-08T04:15:02.077Z,16.8
2017-07-08T04:20:02.056Z,16.8
2017-07-08T04:25:01.875Z,16.8
2017-07-08T04:30:02.073Z,16.8
2017-07-08T04:35:02.800Z,16.9
2017-07-08T04:40:01.661Z,16.9
2017-07-08T04:45:01.939Z,17
2017-07-08T04:50:02.572Z,17
2017-07-08T04:55:01.922Z,17
2017-07-08T05:00:02.073Z,17
2017-07-08T05:05:01.299Z,17
2017-07-08T05:10:02.169Z,17
2017-07-08T05:15:01.431Z,17
2017-07-08T05:20:01.250Z,17
2017-07-08T05:25:01.339Z,17
2017-07-08T05:30:01.384Z,17.2
2017-07-08T05:35:01.610Z,17.2
2017-07-08T05:40:01.983Z,17.2
2017-07-08T05:45:01.478Z,17.3
2017-07-08T05:50:01.407Z,17.3
2017-07-08T05:55:02.044Z,17.4
2017-07-08T06:00:01.287Z,17.5
2017-07-08T06:05:01.178Z,17.6
2017-07-08T06:10:01.299Z,17.6
2017-07-08T06:15:01.758Z,17.6
2017-07-08T06:20:01.605Z,17.6
2017-07-08T06:25:01.902Z,17.9
2017-07-08T06:30:01.191Z,18
2017-07-08T06:35:01.375Z,18.2
2017-07-08T06:40:02.159Z,18.2
2017-07-08T06:45:01.231Z,18.3
2017-07-08T06:50:01.189Z,18.3
2017-07-08T06:55:02.055Z,18.3
2017-07-08T07:00:02.124Z,18.6
2017-07-08T07:05:01.479Z,18.7
2017-07-08T07:10:01.967Z,18.7
2017-07-08T07:15:02.007Z,18.8
2017-07-08T07:20:01.629Z,18.9
2017-07-08T07:25:01.360Z,19.1
2017-07-08T07:30:01.602Z,19.1
2017-07-08T07:35:01.299Z,19.1
2017-07-08T07:40:02.007Z,19.2
2017-07-08T07:45:01.874Z,19.2
2017-07-08T07:50:02.122Z,19.2
2017-07-08T07:55:01.644Z,19.4
2017-07-08T08:00:01.862Z,19.4
2017-07-08T08:05:02.629Z,19.4
2017-07-08T08:10:01.779Z,19.4
2017-07-08T08:15:01.882Z,19.3
2017-07-08T08:20:01.753Z,19.3
2017-07-08T08:25:01.367Z,19.8
2017-07-08T08:30:01.501Z,19.8
2017-07-08T08:35:01.705Z,20.4
2017-07-08T08:40:01.505Z,20.4
2017-07-08T08:45:01.486Z,20.9
2017-07-08T08:50:01.377Z,21
2017-07-08T08:55:01.786Z,21
2017-07-08T09:00:01.473Z,21.1
2017-07-08T09:05:01.583Z,21.2
2017-07-08T09:10:02.014Z,21.2
2017-07-08T09:15:01.968Z,21.2
2017-07-08T09:20:01.674Z,21.3
2017-07-08T09:25:01.276Z,21.3
2017-07-08T09:30:01.303Z,21.3
2017-07-08T09:35:03.638Z,21.8
2017-07-08T09:40:01.259Z,21.8
2017-07-08T09:45:02.151Z,21.9
2017-07-08T09:50:02.151Z,21.9
2017-07-08T09:55:01.499Z,21.8
2017-07-08T10:00:01.825Z,21.8
2017-07-08T10:05:02.738Z,21.8
2017-07-08T10:10:01.645Z,21.8
2017-07-08T10:15:01.945Z,21.8
2017-07-08T10:20:02.418Z,21.8
2017-07-08T10:25:01.742Z,21.8
2017-07-08T10:30:02.083Z,21.8
2017-07-08T10:35:01.204Z,21.8
2017-07-08T10:40:01.946Z,21.8
2017-07-08T10:45:01.995Z,21.8
2017-07-08T10:50:02.013Z,21.8
2017-07-08T10:55:01.739Z,21.9
2017-07-08T11:00:02.104Z,21.9
2017-07-08T11:05:01.188Z,21.9
2017-07-08T11:10:02.040Z,22
2017-07-08T11:15:01.886Z,22
2017-07-08T11:20:01.621Z,22
2017-07-08T11:25:01.465Z,22
2017-07-08T11:30:01.888Z,22
2017-07-08T11:35:02.105Z,22.7
2017-07-08T11:40:02.049Z,22.7
2017-07-08T11:45:01.633Z,22.7
2017-07-08T11:50:01.562Z,22.7
2017-07-08T11:55:01.626Z,22.7
2017-07-08T12:00:01.974Z,22.7
2017-07-08T12:05:01.925Z,22.7
2017-07-08T12:10:01.615Z,22.2
2017-07-08T12:15:01.226Z,22.2
2017-07-08T12:20:01.985Z,22.2
2017-07-08T12:25:01.614Z,22.2
2017-07-08T12:30:01.935Z,22.2
2017-07-08T12:35:01.389Z,22.2
2017-07-08T12:40:02.047Z,22.2
2017-07-08T12:45:01.627Z,22.2
2017-07-08T12:50:01.673Z,22.2
2017-07-08T12:55:01.472Z,22.3
2017-07-08T13:00:02.004Z,22.4
2017-07-08T13:05:01.345Z,22.4
2017-07-08T13:10:02.162Z,22.4
2017-07-08T13:15:01.650Z,22.4
2017-07-08T13:20:01.410Z,22.4
2017-07-08T13:25:02.207Z,22.4
2017-07-08T13:30:01.528Z,22.6
2017-07-08T13:35:02.414Z,22.6
2017-07-08T13:40:02.036Z,22.4
2017-07-08T13:45:01.243Z,22.4
2017-07-08T13:50:01.205Z,22.5
2017-07-08T13:55:01.228Z,22.5
2017-07-08T14:00:01.563Z,22.5
2017-07-08T14:05:02.671Z,22.5
2017-07-08T14:10:01.614Z,22.8
2017-07-08T14:15:01.542Z,22.8
2017-07-08T14:20:01.283Z,22.8
2017-07-08T14:25:01.315Z,22.7
2017-07-08T14:30:01.266Z,22.6
2017-07-08T14:35:02.716Z,22.4
2017-07-08T14:40:01.621Z,22.4
2017-07-08T14:45:02.163Z,22.4
2017-07-08T14:50:02.148Z,22.4
2017-07-08T14:55:01.155Z,22.2
2017-07-08T15:00:02.105Z,22.1
2017-07-08T15:05:03.071Z,22
2017-07-08T15:10:01.831Z,22
2017-07-08T15:15:01.286Z,22
2017-07-08T15:20:02.896Z,21.9
2017-07-08T15:25:01.238Z,21.8
2017-07-08T15:30:01.287Z,21.8
2017-07-08T15:35:01.278Z,21.8
2017-07-08T15:40:02.021Z,21.9
2017-07-08T15:45:01.843Z,21.9
2017-07-08T15:50:01.733Z,21.8
2017-07-08T15:55:02.140Z,21.7
2017-07-08T16:00:02.164Z,21.7
2017-07-08T16:05:01.939Z,21.7
2017-07-08T16:10:01.770Z,21.6
2017-07-08T16:15:01.193Z,21.6
2017-07-08T16:20:02.022Z,21.6
2017-07-08T16:25:01.843Z,21.6
2017-07-08T16:30:01.935Z,21.6
2017-07-08T16:35:01.905Z,21.6
2017-07-08T16:40:01.649Z,21.6
2017-07-08T16:45:01.253Z,21
2017-07-08T16:50:01.461Z,21
2017-07-08T16:55:01.913Z,20.8
2017-07-08T17:00:02.321Z,20.7
2017-07-08T17:05:01.667Z,20.6
2017-07-08T17:10:01.432Z,20.5
2017-07-08T17:15:01.379Z,20.4
2017-07-08T17:20:02.679Z,20.4
2017-07-08T17:25:01.695Z,20.4
2017-07-08T17:30:01.720Z,20.4
2017-07-08T17:35:01.432Z,20.2
2017-07-08T17:40:02.668Z,20
2017-07-08T17:45:01.604Z,20
2017-07-08T17:50:01.637Z,19.9
2017-07-08T17:55:01.868Z,19.9
2017-07-08T18:00:01.818Z,19.8
2017-07-08T18:05:01.614Z,19.8
2017-07-08T18:10:01.991Z,19.5
2017-07-08T18:15:01.513Z,19.4
2017-07-08T18:20:01.272Z,19.4
2017-07-08T18:25:01.421Z,19.2
2017-07-08T18:30:01.435Z,19.1
2017-07-08T18:35:01.274Z,19.1
2017-07-08T18:40:01.987Z,19.1
2017-07-08T18:45:02.001Z,19.1
2017-07-08T18:50:01.945Z,18.7
2017-07-08T18:55:04.891Z,18.7
2017-07-08T19:00:01.845Z,18.5
2017-07-08T19:05:01.603Z,18.4
2017-07-08T19:10:01.441Z,18.3
2017-07-08T19:15:01.747Z,18.2
2017-07-08T19:20:02.067Z,18
2017-07-08T19:25:02.216Z,18
2017-07-08T19:30:02.069Z,18
2017-07-08T19:35:01.430Z,17.8
2017-07-08T19:40:01.255Z,17.6
2017-07-08T19:45:01.851Z,17.5
2017-07-08T19:50:01.574Z,17.5
2017-07-08T19:55:02.144Z,17.3
2017-07-08T20:00:01.153Z,17.1
2017-07-08T20:05:01.220Z,17.1
2017-07-08T20:10:01.972Z,16.9
2017-07-08T20:15:01.792Z,16.8
2017-07-08T20:20:01.772Z,16.8
2017-07-08T20:25:01.608Z,16.7
2017-07-08T20:30:01.639Z,16.4
2017-07-08T20:35:01.215Z,16.4
2017-07-08T20:40:01.215Z,16.3
2017-07-08T20:45:02.057Z,16.1
2017-07-08T20:50:02.575Z,16
2017-07-08T20:55:01.896Z,16
2017-07-08T21:00:01.968Z,15.8
2017-07-08T21:05:01.906Z,15.6
2017-07-08T21:10:02.006Z,15.6
2017-07-08T21:15:01.456Z,15.4
2017-07-08T21:20:01.501Z,15.3
2017-07-08T21:25:01.443Z,15
2017-07-08T21:30:01.596Z,15
2017-07-08T21:35:01.480Z,15
2017-07-08T21:40:01.650Z,15
2017-07-08T21:45:01.551Z,15
2017-07-08T21:50:01.461Z,15
2017-07-08T21:55:02.033Z,15
2017-07-08T22:00:02.079Z,15
2017-07-08T22:05:02.999Z,15
2017-07-08T22:10:01.441Z,14.8
2017-07-08T22:15:01.300Z,14.7
2017-07-08T22:20:02.000Z,14.6
2017-07-08T22:25:02.028Z,14.5
2017-07-08T22:30:01.862Z,14.5
2017-07-08T22:35:02.704Z,14.4
2017-07-08T22:40:01.732Z,14.2
2017-07-08T22:45:01.850Z,14.2
2017-07-08T22:50:01.758Z,14
2017-07-08T22:55:01.443Z,14
2017-07-08T23:00:01.517Z,13.8
2017-07-08T23:05:01.430Z,13.8
2017-07-08T23:10:02.109Z,13.8
2017-07-08T23:15:01.397Z,13.8
2017-07-08T23:20:02.984Z,13.8
2017-07-08T23:25:01.342Z,13.3
2017-07-08T23:30:01.209Z,13.2
2017-07-08T23:35:01.358Z,13.2
2017-07-08T23:40:02.103Z,13.1
2017-07-08T23:45:01.921Z,13
2017-07-08T23:50:01.936Z,12.9
2017-07-08T23:55:01.803Z,12.8
